Avisos AEMET Campiña SevillanaSin Avisos    + INFO

Informes METAR cercanos

 

LEZL - Sevilla (civ/Mil, Spain
Distancia de la estación: O 16km
Actualización: 04/02/2023 05:30
Despejado
Despejado
 Viento del variable
Viento: variable 4 km/h
Temperatura: 3°C
Rocío: 0°C
Humedad: 81%
Barómetro: 1030 hPa
Resumen: Despejado
Visibilidad: más de 10 km
2023/02/04 04:30 LEZL 040430Z VRB02KT CAVOK 03/00 Q1030 NOSIG
LEMO - Moron (sp-Usafb), Spain
Distancia de la estación: SSE 27km
Actualización: 04/02/2023 05:30
Despejado
Despejado
 Viento del calm
Viento: Calma
Temperatura: -1°C
Rocío: -3°C
Humedad: 86%
Barómetro: 1030 hPa
Resumen: Despejado
Visibilidad: más de 10 km
2023/02/04 04:30 LEMO 040430Z 00000KT CAVOK M01/M03 Q1030 NOSIG
 
LEJR - Jerez (civ/Mil), Spain
Distancia de la estación: SSO 78km
Actualización: 04/02/2023 05:30
Despejado
Despejado
 Viento del N
Viento: N 2 km/h
Temperatura: 4°C
Rocío: 2°C
Humedad: 87%
Barómetro: 1030 hPa
Resumen: Despejado
Visibilidad: más de 10 km
2023/02/04 04:30 LEJR 040430Z 35001KT CAVOK 04/02 Q1030